Nachod, Czech Republic
Current Conditions -  °F | °C
As of 5:00 AM on Thursday 23 Oct 2014 (Local Time) from LKPD Reporting Station
Light Rain Light Rain  
Wind Chill: 50°   Ceiling: 5000
Heat Index: 50°   Visibility: 6mi
Dew Point: 48°   Wind: 5mph
Humidity: 94%   Direction: 320°NW
Pressure: 29.77"   Gusts: NA
Location:  50.42°N, 16.17°E
Report Text: LKPD 230300Z 32004KT 260V050 9999 -RA FEW027 OVC050 10/09 Q1008
Loading
Personal Weather Stations






























Interactive Weather Map
Tropical Storm Tracking
New forecast layout! Learn more

10-Day Weather Forecast

Advertisements
Track Severe Weather on mobile